createdAt,value
2018-11-20T00:00:17.575Z,56.50
2018-11-20T00:03:25.468Z,56.42
2018-11-20T00:06:28.156Z,56.48
2018-11-20T00:12:42.654Z,56.47
2018-11-20T00:15:50.509Z,56.28
2018-11-20T00:19:15.933Z,55.97
2018-11-20T00:25:28.312Z,55.12
2018-11-20T00:28:33.918Z,55.14
2018-11-20T00:31:44.981Z,55.12
2018-11-20T00:34:44.526Z,55.12
2018-11-20T00:37:52.391Z,54.94
2018-11-20T00:40:49.695Z,54.94
2018-11-20T00:43:57.498Z,55.05
2018-11-20T00:47:05.202Z,54.88
2018-11-20T00:50:24.945Z,54.94
2018-11-20T00:53:32.773Z,55.21
2018-11-20T00:56:59.132Z,55.11
2018-11-20T00:59:48.929Z,55.29
2018-11-20T01:02:58.990Z,55.39
2018-11-20T01:05:43.976Z,55.38
2018-11-20T01:08:48.399Z,55.27
2018-11-20T01:11:40.720Z,55.21
2018-11-20T01:14:48.472Z,55.25
2018-11-20T01:21:15.870Z,54.70
2018-11-20T01:24:04.988Z,54.00
2018-11-20T01:27:12.723Z,53.82
2018-11-20T01:33:28.151Z,53.34
2018-11-20T01:36:30.663Z,52.83
2018-11-20T01:40:05.093Z,52.56
2018-11-20T01:43:17.245Z,52.20
2018-11-20T01:46:26.829Z,52.39
2018-11-20T01:49:28.199Z,52.24
2018-11-20T01:52:08.661Z,51.98
2018-11-20T01:55:00.793Z,51.77
2018-11-20T01:57:50.728Z,51.71
2018-11-20T02:00:58.512Z,51.57
2018-11-20T02:04:06.979Z,51.40
2018-11-20T02:14:13.567Z,51.40
2018-11-20T02:20:45.658Z,51.78
2018-11-20T02:23:46.995Z,51.90
2018-11-20T02:26:36.101Z,51.83
2018-11-20T02:36:20.451Z,51.63
2018-11-20T02:39:28.214Z,51.79
2018-11-20T02:42:35.985Z,52.06
2018-11-20T02:45:36.674Z,51.93
2018-11-20T02:48:44.632Z,51.73
2018-11-20T02:51:26.943Z,51.72
2018-11-20T02:54:34.808Z,51.57
2018-11-20T02:57:23.813Z,51.62
2018-11-20T03:00:41.210Z,51.69
2018-11-20T03:03:48.948Z,52.01
2018-11-20T03:06:56.930Z,52.28
2018-11-20T03:09:55.496Z,52.38
2018-11-20T03:16:30.930Z,52.00
2018-11-20T03:20:05.516Z,52.29
2018-11-20T03:23:06.149Z,52.38
2018-11-20T03:29:32.984Z,52.65
2018-11-20T03:32:40.688Z,52.77
2018-11-20T03:35:48.704Z,52.80
2018-11-20T03:38:56.340Z,53.08
2018-11-20T03:41:45.746Z,53.29
2018-11-20T03:44:45.773Z,53.42
2018-11-20T03:47:53.569Z,53.68
2018-11-20T03:54:32.720Z,53.63
2018-11-20T03:57:35.747Z,53.65
2018-11-20T04:00:34.799Z,53.87
2018-11-20T04:06:43.524Z,53.93
2018-11-20T04:09:51.628Z,54.04
2018-11-20T04:12:41.181Z,54.01
2018-11-20T04:19:15.832Z,54.08
2018-11-20T04:22:23.428Z,53.91
2018-11-20T04:25:33.803Z,53.98
2018-11-20T04:29:08.169Z,53.82
2018-11-20T04:32:17.606Z,53.53
2018-11-20T04:35:49.296Z,53.40
2018-11-20T04:38:38.416Z,53.30
2018-11-20T04:44:46.158Z,52.69
2018-11-20T04:47:45.959Z,52.51
2018-11-20T04:56:59.544Z,51.74
2018-11-20T05:00:08.683Z,51.29
2018-11-20T05:02:56.563Z,51.12
2018-11-20T05:06:04.483Z,50.77
2018-11-20T05:09:13.622Z,50.72
2018-11-20T05:12:21.282Z,50.47
2018-11-20T05:15:09.687Z,50.30
2018-11-20T05:18:19.095Z,50.02
2018-11-20T05:21:14.126Z,50.20
2018-11-20T05:24:14.865Z,49.96
2018-11-20T05:27:03.913Z,50.09
2018-11-20T05:33:19.365Z,49.87
2018-11-20T05:36:24.217Z,49.60
2018-11-20T05:39:36.921Z,49.41
2018-11-20T05:43:02.560Z,49.47
2018-11-20T05:46:02.490Z,49.54
2018-11-20T05:49:13.852Z,49.24
2018-11-20T05:52:27.273Z,49.14
2018-11-20T05:55:30.944Z,49.10
2018-11-20T05:58:45.801Z,49.45
2018-11-20T06:04:39.338Z,49.22
2018-11-20T06:07:28.353Z,49.51
2018-11-20T06:10:17.866Z,49.32
2018-11-20T06:13:47.200Z,48.95
2018-11-20T06:16:57.219Z,49.77
2018-11-20T06:20:04.843Z,49.77
2018-11-20T06:23:13.004Z,49.29
2018-11-20T06:26:45.303Z,49.35
2018-11-20T06:29:56.460Z,49.30
2018-11-20T06:36:29.529Z,49.74
2018-11-20T06:39:38.057Z,49.70
2018-11-20T06:42:46.485Z,49.72
2018-11-20T06:45:58.199Z,49.93
2018-11-20T06:49:07.797Z,50.14
2018-11-20T06:52:08.081Z,50.20
2018-11-20T06:55:15.844Z,50.33
2018-11-20T06:58:41.442Z,50.24
2018-11-20T07:01:37.271Z,50.37
2018-11-20T07:04:39.105Z,50.23
2018-11-20T07:07:39.370Z,50.03
2018-11-20T07:10:35.792Z,50.04
2018-11-20T07:13:51.476Z,50.03
2018-11-20T07:17:02.159Z,49.79
2018-11-20T07:20:11.750Z,49.80
2018-11-20T07:23:19.606Z,49.53
2018-11-20T07:31:38.470Z,49.08
2018-11-20T07:37:44.457Z,49.03
2018-11-20T07:40:54.260Z,49.00
2018-11-20T07:46:48.776Z,48.99
2018-11-20T07:49:48.725Z,48.83
2018-11-20T07:52:39.613Z,48.83
2018-11-20T07:55:32.546Z,48.89
2018-11-20T07:58:42.341Z,49.05
2018-11-20T08:01:48.084Z,48.98
2018-11-20T08:05:17.375Z,48.94
2018-11-20T08:08:07.087Z,49.04
2018-11-20T08:10:49.118Z,48.83
2018-11-20T08:17:18.792Z,48.73
2018-11-20T08:20:14.270Z,48.63
2018-11-20T08:23:20.148Z,48.66
2018-11-20T08:26:02.895Z,48.52
2018-11-20T08:28:52.184Z,48.36
2018-11-20T08:31:58.549Z,48.36
2018-11-20T08:41:30.639Z,48.18
2018-11-20T08:47:37.544Z,48.01
2018-11-20T08:50:44.330Z,47.98
2018-11-20T08:53:25.258Z,48.13
2018-11-20T08:56:19.923Z,48.17
2018-11-20T08:59:06.298Z,47.83
2018-11-20T09:02:16.469Z,47.70
2018-11-20T09:11:06.587Z,47.43
2018-11-20T09:33:42.783Z,47.34
2018-11-20T09:39:43.503Z,46.98
2018-11-20T09:42:52.946Z,46.89
2018-11-20T09:46:05.952Z,47.23
2018-11-20T09:48:55.203Z,47.27
2018-11-20T09:51:45.031Z,47.10
2018-11-20T09:54:43.522Z,47.24
2018-11-20T09:57:52.399Z,47.02
2018-11-20T10:01:00.039Z,47.06
2018-11-20T10:04:09.033Z,47.32
2018-11-20T10:10:44.119Z,47.37
2018-11-20T10:13:50.451Z,47.23
2018-11-20T10:17:00.295Z,47.17
2018-11-20T10:23:27.249Z,47.25
2018-11-20T10:26:34.830Z,47.20
2018-11-20T10:29:49.300Z,47.26
2018-11-20T10:33:00.210Z,47.26
2018-11-20T10:36:32.041Z,47.19
2018-11-20T10:42:39.203Z,47.37
2018-11-20T10:56:19.942Z,46.73
2018-11-20T10:59:27.791Z,46.68
2018-11-20T11:02:13.769Z,46.68
2018-11-20T11:21:55.968Z,46.51
2018-11-20T11:24:36.085Z,46.25
2018-11-20T11:27:27.668Z,46.46
2018-11-20T11:30:14.721Z,46.52
2018-11-20T11:33:02.382Z,46.16
2018-11-20T11:36:09.562Z,46.27
2018-11-20T11:39:00.938Z,46.23
2018-11-20T11:42:07.970Z,46.11
2018-11-20T11:45:36.738Z,46.25
2018-11-20T11:48:54.708Z,46.43
2018-11-20T11:51:48.136Z,46.41
2018-11-20T11:54:48.386Z,46.14
2018-11-20T11:58:09.952Z,46.15
2018-11-20T12:01:16.224Z,45.82
2018-11-20T12:06:55.111Z,45.99
2018-11-20T12:09:59.671Z,46.03
2018-11-20T12:12:53.665Z,45.91
2018-11-20T12:15:49.669Z,45.83
2018-11-20T12:18:57.141Z,46.13
2018-11-20T12:21:51.588Z,46.15
2018-11-20T12:24:51.379Z,46.43
2018-11-20T12:27:41.735Z,45.84
2018-11-20T12:30:32.608Z,45.79
2018-11-20T12:33:44.520Z,45.85
2018-11-20T12:36:50.786Z,45.86
2018-11-20T12:39:42.676Z,46.04
2018-11-20T12:42:34.887Z,46.16
2018-11-20T12:45:35.527Z,46.29
2018-11-20T12:48:49.230Z,46.68
2018-11-20T12:51:40.338Z,46.87
2018-11-20T12:54:23.453Z,47.01
2018-11-20T12:57:21.084Z,47.17
2018-11-20T13:01:06.334Z,47.39
2018-11-20T13:04:10.289Z,47.09
2018-11-20T13:07:07.173Z,46.84
2018-11-20T13:10:01.578Z,46.93
2018-11-20T13:13:06.659Z,47.12
2018-11-20T13:16:11.175Z,47.17
2018-11-20T13:18:59.238Z,47.30
2018-11-20T13:22:10.344Z,47.34
2018-11-20T13:25:19.306Z,47.46
2018-11-20T13:28:20.037Z,47.71
2018-11-20T13:31:21.122Z,48.07
2018-11-20T13:34:27.206Z,48.30
2018-11-20T13:37:20.414Z,48.48
2018-11-20T13:40:43.335Z,48.54
2018-11-20T13:43:38.555Z,48.82
2018-11-20T13:46:43.136Z,49.00
2018-11-20T13:49:34.382Z,48.98
2018-11-20T13:52:36.963Z,49.41
2018-11-20T13:55:28.142Z,49.47
2018-11-20T13:58:25.079Z,49.53
2018-11-20T14:01:19.193Z,49.38
2018-11-20T14:04:21.648Z,49.34
2018-11-20T14:07:09.950Z,49.52
2018-11-20T14:10:03.603Z,49.61
2018-11-20T14:13:11.890Z,49.60
2018-11-20T14:16:12.161Z,49.58
2018-11-20T14:19:05.195Z,49.82
2018-11-20T14:21:51.921Z,49.91
2018-11-20T14:24:41.347Z,50.12
2018-11-20T14:27:35.451Z,50.18
2018-11-20T14:30:29.786Z,50.31
2018-11-20T14:33:56.320Z,50.42
2018-11-20T14:37:05.417Z,50.39
2018-11-20T14:39:58.603Z,50.73
2018-11-20T14:43:02.648Z,50.69
2018-11-20T14:45:56.974Z,50.91
2018-11-20T14:49:03.424Z,51.19
2018-11-20T14:51:55.332Z,51.44
2018-11-20T14:54:47.664Z,51.36
2018-11-20T14:57:52.011Z,51.80
2018-11-20T15:00:49.475Z,51.92
2018-11-20T15:03:51.065Z,51.79
2018-11-20T15:06:42.367Z,51.66
2018-11-20T15:09:27.611Z,51.72
2018-11-20T15:12:14.513Z,51.82
2018-11-20T15:15:04.521Z,51.99
2018-11-20T15:17:52.095Z,52.14
2018-11-20T15:20:43.252Z,52.07
2018-11-20T15:23:32.601Z,52.02
2018-11-20T15:26:25.253Z,52.29
2018-11-20T15:29:19.325Z,52.35
2018-11-20T15:32:14.950Z,52.24
2018-11-20T15:35:04.971Z,52.17
2018-11-20T15:38:08.761Z,52.47
2018-11-20T15:40:59.084Z,52.35
2018-11-20T15:43:50.620Z,52.37
2018-11-20T15:46:51.113Z,52.05
2018-11-20T15:49:44.424Z,51.86
2018-11-20T15:52:52.723Z,51.85
2018-11-20T15:55:51.165Z,51.67
2018-11-20T15:58:38.884Z,51.48
2018-11-20T16:01:48.801Z,51.69
2018-11-20T16:04:51.391Z,51.43
2018-11-20T16:07:52.286Z,51.31
2018-11-20T16:11:11.014Z,51.26
2018-11-20T16:14:17.132Z,51.31
2018-11-20T16:17:16.798Z,50.95
2018-11-20T16:20:43.695Z,50.83
2018-11-20T16:23:42.171Z,50.49
2018-11-20T16:26:43.398Z,50.45
2018-11-20T16:29:42.162Z,50.32
2018-11-20T16:33:10.736Z,50.16
2018-11-20T16:36:07.675Z,49.90
2018-11-20T16:39:01.002Z,50.68
2018-11-20T16:42:07.970Z,50.33
2018-11-20T16:45:05.334Z,50.26
2018-11-20T16:51:28.535Z,49.67
2018-11-20T16:54:52.537Z,49.96
2018-11-20T16:58:22.418Z,49.98
2018-11-20T17:01:35.914Z,49.83
2018-11-20T17:04:45.947Z,49.55
2018-11-20T17:07:33.873Z,49.78
2018-11-20T17:10:42.225Z,49.83
2018-11-20T17:13:50.412Z,50.06
2018-11-20T17:16:34.785Z,49.94
2018-11-20T17:19:32.219Z,50.70
2018-11-20T17:22:27.453Z,50.92
2018-11-20T17:32:34.248Z,51.19
2018-11-20T17:35:23.699Z,51.43
2018-11-20T17:38:19.371Z,51.44
2018-11-20T17:41:24.958Z,51.79
2018-11-20T17:44:37.198Z,51.53
2018-11-20T17:47:39.351Z,51.58
2018-11-20T17:50:49.162Z,51.08
2018-11-20T17:54:00.056Z,51.74
2018-11-20T17:56:52.674Z,52.11
2018-11-20T17:59:40.004Z,52.41
2018-11-20T18:02:49.828Z,52.73
2018-11-20T18:05:59.482Z,52.54
2018-11-20T18:08:46.146Z,52.47
2018-11-20T18:11:49.260Z,52.28
2018-11-20T18:18:25.462Z,52.20
2018-11-20T18:21:22.887Z,51.91
2018-11-20T18:24:15.326Z,52.11
2018-11-20T18:27:29.503Z,52.43
2018-11-20T18:30:54.152Z,52.81
2018-11-20T18:33:38.457Z,52.62
2018-11-20T18:36:26.850Z,53.03
2018-11-20T18:39:28.803Z,53.17
2018-11-20T18:42:19.164Z,52.92
2018-11-20T18:45:29.473Z,52.44
2018-11-20T18:48:18.713Z,52.39
2018-11-20T18:51:07.847Z,52.64
2018-11-20T18:54:10.677Z,52.66
2018-11-20T18:56:58.361Z,52.84
2018-11-20T19:00:19.234Z,52.95
2018-11-20T19:03:18.102Z,53.16
2018-11-20T19:06:36.399Z,53.01
2018-11-20T19:09:28.765Z,53.09
2018-11-20T19:12:22.926Z,53.52
2018-11-20T19:15:23.831Z,53.46
2018-11-20T19:18:14.300Z,53.86
2018-11-20T19:21:04.712Z,54.47
2018-11-20T19:24:00.816Z,54.33
2018-11-20T19:27:08.678Z,54.32
2018-11-20T19:30:27.190Z,54.14
2018-11-20T19:33:37.385Z,53.98
2018-11-20T19:36:56.992Z,53.73
2018-11-20T19:39:50.147Z,53.38
2018-11-20T19:42:40.214Z,53.48
2018-11-20T19:45:39.246Z,53.40
2018-11-20T19:48:48.242Z,53.54
2018-11-20T19:51:52.236Z,53.76
2018-11-20T19:54:42.407Z,54.13
2018-11-20T19:57:48.445Z,54.08
2018-11-20T20:00:56.090Z,54.28
2018-11-20T20:13:41.947Z,53.96
2018-11-20T20:16:37.854Z,54.20
2018-11-20T20:19:52.809Z,53.97
2018-11-20T20:22:43.414Z,54.25
2018-11-20T20:25:44.110Z,54.95
2018-11-20T20:28:55.005Z,55.04
2018-11-20T20:31:46.213Z,55.32
2018-11-20T20:34:50.751Z,55.43
2018-11-20T20:38:02.648Z,55.68
2018-11-20T20:40:40.006Z,55.55
2018-11-20T20:43:32.968Z,55.89
2018-11-20T20:46:22.894Z,56.04
2018-11-20T20:49:29.282Z,56.15
2018-11-20T20:52:44.636Z,56.38
2018-11-20T20:55:36.938Z,56.58
2018-11-20T20:58:26.981Z,56.91
2018-11-20T21:01:51.725Z,56.33
2018-11-20T21:04:41.629Z,56.12
2018-11-20T21:07:48.421Z,56.22
2018-11-20T21:10:48.786Z,56.04
2018-11-20T21:14:02.552Z,56.48
2018-11-20T21:17:03.386Z,56.80
2018-11-20T21:20:04.844Z,56.72
2018-11-20T21:26:19.269Z,56.08
2018-11-20T21:29:28.430Z,55.84
2018-11-20T21:33:05.748Z,55.60
2018-11-20T21:39:29.197Z,55.75
2018-11-20T21:42:24.532Z,55.70
2018-11-20T21:45:20.685Z,55.66
2018-11-20T21:48:14.697Z,55.97
2018-11-20T21:51:08.599Z,56.05
2018-11-20T21:54:01.995Z,55.73
2018-11-20T21:56:52.333Z,55.69
2018-11-20T21:59:45.090Z,55.72
2018-11-20T22:02:36.345Z,55.75
2018-11-20T22:05:33.490Z,56.00
2018-11-20T22:08:12.852Z,55.77
2018-11-20T22:11:02.037Z,55.70
2018-11-20T22:13:45.039Z,55.57
2018-11-20T22:16:32.979Z,55.95
2018-11-20T22:19:20.507Z,55.92
2018-11-20T22:22:07.179Z,55.91
2018-11-20T22:24:55.597Z,56.16
2018-11-20T22:27:50.583Z,55.84
2018-11-20T22:30:38.774Z,56.04
2018-11-20T22:33:36.443Z,55.75
2018-11-20T22:36:24.578Z,55.59
2018-11-20T22:39:24.889Z,55.90
2018-11-20T22:42:14.744Z,55.55
2018-11-20T22:44:59.439Z,55.75
2018-11-20T22:47:48.584Z,56.06
2018-11-20T22:50:27.868Z,56.29
2018-11-20T22:53:17.750Z,56.04
2018-11-20T22:56:13.282Z,55.90
2018-11-20T22:59:13.124Z,55.78
2018-11-20T23:02:07.316Z,55.79
2018-11-20T23:04:58.774Z,55.98
2018-11-20T23:07:57.832Z,56.06
2018-11-20T23:10:31.187Z,56.00
2018-11-20T23:12:58.462Z,56.00
2018-11-20T23:15:30.411Z,56.31
2018-11-20T23:18:02.127Z,56.02
2018-11-20T23:20:31.773Z,55.86
2018-11-20T23:23:03.365Z,55.84
2018-11-20T23:25:44.386Z,55.73
2018-11-20T23:28:16.035Z,55.94
2018-11-20T23:30:45.765Z,56.06
2018-11-20T23:33:15.334Z,55.93
2018-11-20T23:36:06.316Z,55.70
2018-11-20T23:38:37.008Z,55.76
2018-11-20T23:41:06.958Z,55.71
2018-11-20T23:43:37.079Z,55.74
2018-11-20T23:46:13.526Z,55.63
2018-11-20T23:48:43.437Z,55.66
2018-11-20T23:51:12.670Z,55.90
2018-11-20T23:53:42.226Z,56.04
2018-11-20T23:56:12.483Z,55.95
2018-11-20T23:58:42.407Z,55.89
